Time;durP1;ratioP1;P1;durP2;ratioP2;P2;SDS_P1;SDS_P2;PMS_P1;PMS_P2;Temp;Humidity;BMP_temperature;BMP_pressure;BME280_temperature;BME280_humidity;BME280_pressure;Samples;Min_cycle;Max_cycle;Signal;HPM_P1;HPM_P2
2023/12/20 00:01:11;;;;;;;2.30;1.13;;;;;;;18.94;48.47;101488.47;5050997;27;97289;-78
2023/12/20 00:03:38;;;;;;;2.08;1.15;;;;;;;18.97;48.19;101493.63;5032279;27;98311;-78
2023/12/20 00:06:09;;;;;;;1.45;0.90;;;;;;;18.97;48.33;101482.72;5036190;27;99314;-78
2023/12/20 00:08:36;;;;;;;2.03;1.00;;;;;;;18.98;48.64;101497.19;5046643;27;97481;-78
2023/12/20 00:11:02;;;;;;;1.50;0.93;;;;;;;18.97;48.21;101493.63;5053075;27;96746;-78
2023/12/20 00:13:29;;;;;;;1.60;1.10;;;;;;;18.97;48.24;101485.44;5072706;27;97737;-78
2023/12/20 00:15:56;;;;;;;1.35;0.70;;;;;;;18.97;48.63;101487.31;5037590;27;99042;-78
2023/12/20 00:18:23;;;;;;;2.05;1.13;;;;;;;18.98;48.18;101497.19;5063189;27;96730;-78
2023/12/20 00:20:50;;;;;;;1.38;1.10;;;;;;;18.98;48.31;101502.63;5053185;27;96933;-78
2023/12/20 00:23:16;;;;;;;3.17;1.15;;;;;;;18.99;48.26;101496.19;5058781;27;98338;-78
2023/12/20 00:25:43;;;;;;;1.90;1.00;;;;;;;18.99;48.25;101497.03;5055397;27;96765;-78
2023/12/20 00:28:10;;;;;;;1.55;1.02;;;;;;;18.99;48.32;101502.50;5037094;27;96863;-78
2023/12/20 00:30:36;;;;;;;1.30;1.00;;;;;;;18.97;48.23;101504.50;5050500;27;97135;-78
2023/12/20 00:33:03;;;;;;;2.08;0.93;;;;;;;18.99;48.39;101498.91;5036331;27;97890;-78
2023/12/20 00:35:30;;;;;;;2.30;1.10;;;;;;;19.01;48.30;101494.19;5041008;27;96563;-78
2023/12/20 00:37:58;;;;;;;1.20;1.00;;;;;;;19.00;48.30;101490.59;5039155;27;97312;-78
2023/12/20 00:40:25;;;;;;;1.98;1.00;;;;;;;18.99;48.42;101494.31;5058933;27;97732;-78
2023/12/20 00:42:51;;;;;;;3.00;1.02;;;;;;;19.01;48.42;101488.72;5046013;27;98122;-78
2023/12/20 00:45:18;;;;;;;2.55;1.23;;;;;;;19.00;48.50;101482.44;5034183;27;97567;-78
2023/12/20 00:47:45;;;;;;;1.77;0.85;;;;;;;19.01;48.30;101481.44;5074332;27;97269;-78
2023/12/20 00:50:12;;;;;;;1.58;0.80;;;;;;;19.01;48.18;101472.41;5056803;27;96806;-78
2023/12/20 00:52:39;;;;;;;1.38;0.90;;;;;;;19.01;48.36;101475.13;5036877;27;99242;-78
2023/12/20 00:55:06;;;;;;;1.42;0.75;;;;;;;19.00;48.43;101482.44;5052340;27;98001;-78
2023/12/20 00:57:34;;;;;;;1.70;0.90;;;;;;;19.00;48.32;101473.41;5041910;27;96729;-78
2023/12/20 01:00:00;;;;;;;2.05;1.23;;;;;;;19.02;48.19;101476.84;5038595;27;97400;-78
2023/12/20 01:02:27;;;;;;;1.65;0.88;;;;;;;19.02;48.40;101476.84;5055068;27;96959;-78
2023/12/20 01:04:54;;;;;;;2.15;1.15;;;;;;;19.02;48.25;101483.16;5046307;27;96894;-78
2023/12/20 01:07:21;;;;;;;1.25;0.85;;;;;;;19.03;48.50;101475.84;5045629;27;97118;-78
2023/12/20 01:09:48;;;;;;;1.70;0.90;;;;;;;19.02;48.40;101482.28;5039185;27;96766;-78
2023/12/20 01:12:15;;;;;;;1.52;0.73;;;;;;;19.01;48.11;101480.56;5072776;27;98167;-78
2023/12/20 01:14:42;;;;;;;2.08;1.00;;;;;;;19.01;48.28;101489.59;5054061;27;96925;-78
2023/12/20 01:17:09;;;;;;;1.85;1.00;;;;;;;19.01;48.12;101500.47;5058007;27;97237;-78
2023/12/20 01:19:36;;;;;;;1.50;0.77;;;;;;;19.02;48.43;101502.19;5051575;27;96904;-78
2023/12/20 01:22:03;;;;;;;2.38;0.95;;;;;;;19.02;48.42;101501.34;5037552;27;100112;-78
2023/12/20 01:24:30;;;;;;;2.20;0.82;;;;;;;19.03;48.16;101493.03;5054673;27;96910;-78
2023/12/20 01:26:56;;;;;;;1.77;0.80;;;;;;;19.03;47.91;101495.75;5067830;27;96656;-78
2023/12/20 01:29:23;;;;;;;1.75;0.90;;;;;;;19.03;47.90;101497.63;5045742;27;96840;-78
2023/12/20 01:31:50;;;;;;;1.20;0.70;;;;;;;19.03;48.46;101498.47;5064912;27;98884;-78
2023/12/20 01:34:17;;;;;;;2.08;0.75;;;;;;;19.02;48.27;101501.34;5055152;27;97049;-78
2023/12/20 01:36:44;;;;;;;1.88;0.98;;;;;;;19.01;48.09;101503.19;5054985;27;96681;-78
2023/12/20 01:39:11;;;;;;;1.17;0.65;;;;;;;19.03;48.03;101505.78;5053708;27;96798;-78
2023/12/20 01:41:50;;;;;;;1.20;0.80;;;;;;;19.03;48.28;101508.50;5059250;27;97888;-78
2023/12/20 01:44:17;;;;;;;1.15;0.63;;;;;;;19.04;48.09;101505.63;5047782;27;96764;-78
2023/12/20 01:46:44;;;;;;;1.83;0.88;;;;;;;19.05;48.08;101503.75;5074276;27;97194;-78
2023/12/20 01:49:11;;;;;;;2.17;0.73;;;;;;;19.02;48.28;101494.03;5046889;27;96673;-78
2023/12/20 01:51:39;;;;;;;0.90;0.60;;;;;;;19.03;47.88;101487.56;5054922;27;98457;-78
2023/12/20 01:54:06;;;;;;;2.28;0.70;;;;;;;19.04;47.87;101486.56;5073604;27;97319;-78
2023/12/20 01:56:33;;;;;;;1.17;0.73;;;;;;;19.03;48.01;101479.41;5038933;27;96649;-78
2023/12/20 01:59:01;;;;;;;2.00;0.80;;;;;;;19.04;48.12;101483.84;5041303;27;97241;-78
2023/12/20 02:01:28;;;;;;;1.13;0.85;;;;;;;19.02;48.23;101494.03;5064183;27;96714;-78
2023/12/20 02:03:56;;;;;;;1.35;0.85;;;;;;;19.04;48.23;101494.75;5041402;27;97449;-78
2023/12/20 02:06:29;;;;;;;1.70;0.68;;;;;;;19.05;48.21;101491.00;5053713;27;97501;-78
2023/12/20 02:08:56;;;;;;;1.88;0.70;;;;;;;19.06;48.31;101491.88;5048799;27;97032;-78
2023/12/20 02:11:23;;;;;;;1.48;0.93;;;;;;;19.05;48.10;101487.44;5053103;27;97433;-78
2023/12/20 02:13:49;;;;;;;1.83;0.95;;;;;;;19.03;48.14;101486.72;5047107;27;98343;-78
2023/12/20 02:16:17;;;;;;;1.48;0.70;;;;;;;19.03;48.23;101487.56;5059564;27;96623;-78
2023/12/20 02:18:44;;;;;;;1.70;0.77;;;;;;;19.05;47.99;101490.16;5027336;27;97314;-78
2023/12/20 02:21:11;;;;;;;2.33;1.00;;;;;;;19.05;47.96;101495.59;5044715;27;98125;-78
2023/12/20 02:23:37;;;;;;;1.63;0.70;;;;;;;19.03;48.10;101486.72;5054633;27;96741;-78
2023/12/20 02:26:06;;;;;;;1.45;0.75;;;;;;;19.04;47.78;101494.75;5051231;27;97043;-78
2023/12/20 02:28:33;;;;;;;1.60;0.88;;;;;;;19.04;48.12;101492.00;5043449;27;97198;-78
2023/12/20 02:31:00;;;;;;;1.65;0.80;;;;;;;19.07;48.18;101492.72;5049131;27;96758;-78
2023/12/20 02:33:27;;;;;;;0.75;0.50;;;;;;;19.04;48.06;101497.47;5041116;27;98539;-78
2023/12/20 02:35:53;;;;;;;1.08;0.70;;;;;;;19.04;48.03;101497.47;5042186;27;97569;-78
2023/12/20 02:38:20;;;;;;;1.65;0.70;;;;;;;19.03;47.94;101497.63;5063943;27;96782;-78
2023/12/20 02:40:47;;;;;;;1.65;0.80;;;;;;;19.05;48.06;101503.75;5048517;27;96983;-78
2023/12/20 02:43:15;;;;;;;1.23;0.70;;;;;;;19.04;47.69;101500.19;5048675;27;96473;-78
2023/12/20 02:45:42;;;;;;;1.52;1.00;;;;;;;19.03;48.06;101487.56;5057989;27;95999;-78
2023/12/20 02:48:09;;;;;;;1.00;0.63;;;;;;;19.03;47.85;101493.03;5058499;27;96896;-78
2023/12/20 02:50:36;;;;;;;1.17;0.70;;;;;;;19.03;47.83;101484.84;5072359;27;96912;-78
2023/12/20 02:53:03;;;;;;;1.35;0.73;;;;;;;19.03;47.75;101494.88;5072823;27;96583;-78
2023/12/20 02:55:29;;;;;;;0.93;0.65;;;;;;;19.03;48.14;101492.16;5051297;27;97060;-78
2023/12/20 02:57:56;;;;;;;1.33;0.60;;;;;;;19.05;47.83;101496.44;5026879;27;96680;-78
2023/12/20 03:00:23;;;;;;;0.90;0.70;;;;;;;19.04;48.00;101483.84;5038468;27;98783;-78
2023/12/20 03:02:49;;;;;;;1.23;0.60;;;;;;;19.05;47.55;101484.72;5034775;27;96602;-78
2023/12/20 03:05:16;;;;;;;1.35;0.80;;;;;;;19.04;47.77;101481.13;5042803;27;97105;-78
2023/12/20 03:07:43;;;;;;;0.95;0.60;;;;;;;19.05;47.88;101487.44;5027434;27;96933;-78
2023/12/20 03:10:11;;;;;;;0.80;0.65;;;;;;;19.04;47.75;101489.28;5045062;27;97774;-78
2023/12/20 03:12:49;;;;;;;2.08;1.05;;;;;;;19.07;47.68;101490.00;5044347;27;96733;-78
2023/12/20 03:15:16;;;;;;;1.65;0.75;;;;;;;19.04;48.07;101483.00;5035533;27;96741;-78
2023/12/20 03:17:43;;;;;;;1.05;0.65;;;;;;;19.05;47.70;101476.53;5052794;27;96798;-78
2023/12/20 03:20:10;;;;;;;0.82;0.70;;;;;;;19.04;48.00;101470.25;5047547;27;97650;-78
2023/12/20 03:22:37;;;;;;;1.10;0.60;;;;;;;19.04;47.82;101467.50;5050704;27;96792;-78
2023/12/20 03:25:04;;;;;;;1.20;0.63;;;;;;;19.05;48.00;101466.50;5063818;27;96611;-78
2023/12/20 03:27:31;;;;;;;1.05;0.60;;;;;;;19.05;47.97;101471.97;5051787;27;96637;-78
2023/12/20 03:29:57;;;;;;;1.15;0.65;;;;;;;19.05;47.87;101468.38;5069702;27;96884;-78
2023/12/20 03:32:24;;;;;;;1.20;0.73;;;;;;;19.05;47.89;101463.78;5051561;27;97225;-78
2023/12/20 03:34:51;;;;;;;2.72;0.70;;;;;;;19.05;47.56;101466.50;5052842;27;96931;-78
2023/12/20 03:37:17;;;;;;;0.93;0.60;;;;;;;19.04;47.81;101464.78;5032671;27;97011;-78
2023/12/20 03:39:44;;;;;;;1.58;0.70;;;;;;;19.04;47.54;101461.22;5060629;27;97709;-78
2023/12/20 03:42:13;;;;;;;1.10;0.70;;;;;;;19.05;47.96;101469.22;5034413;27;100047;-78
2023/12/20 03:44:40;;;;;;;0.63;0.60;;;;;;;19.04;47.83;101461.22;5051991;27;97254;-78
2023/12/20 03:47:06;;;;;;;1.48;0.68;;;;;;;19.04;47.69;101461.22;5040242;27;96948;-78
2023/12/20 03:49:33;;;;;;;1.13;0.60;;;;;;;19.04;47.50;101467.50;5054211;27;96714;-78
2023/12/20 03:52:00;;;;;;;0.63;0.50;;;;;;;19.05;47.76;101458.34;5042528;27;98264;-78
2023/12/20 03:54:27;;;;;;;1.35;0.65;;;;;;;19.05;47.75;101460.22;5073096;27;97992;-78
2023/12/20 03:56:53;;;;;;;1.13;0.50;;;;;;;19.05;47.94;101446.59;5054382;27;97255;-78
2023/12/20 03:59:20;;;;;;;0.77;0.43;;;;;;;19.04;47.52;101445.75;5053800;27;98979;-78
2023/12/20 04:01:47;;;;;;;1.35;0.70;;;;;;;19.05;47.60;101450.19;5036928;27;99879;-78
2023/12/20 04:04:14;;;;;;;0.70;0.50;;;;;;;19.06;47.80;101459.19;5031209;27;96850;-78
2023/12/20 04:06:40;;;;;;;0.85;0.52;;;;;;;19.07;47.67;101450.03;5058888;27;97695;-78
2023/12/20 04:09:09;;;;;;;2.55;0.70;;;;;;;19.05;47.69;101452.91;5071670;27;98160;-78
2023/12/20 04:11:36;;;;;;;1.15;0.60;;;;;;;19.04;47.62;101464.78;5045126;27;98183;-78
2023/12/20 04:14:04;;;;;;;1.23;0.80;;;;;;;19.06;47.41;101475.53;5049309;27;96817;-78
2023/12/20 04:16:31;;;;;;;1.27;0.60;;;;;;;19.08;47.61;101475.38;5043877;27;96806;-78
2023/12/20 04:18:58;;;;;;;1.05;0.60;;;;;;;19.07;47.41;101465.50;5035676;27;97570;-78
2023/12/20 04:21:25;;;;;;;0.90;0.60;;;;;;;19.07;47.73;101476.41;5045783;27;96867;-78
2023/12/20 04:23:51;;;;;;;1.45;0.60;;;;;;;19.06;47.48;101472.81;5046215;27;97050;-78
2023/12/20 04:26:18;;;;;;;2.40;0.70;;;;;;;19.05;47.75;101468.38;5059422;27;96700;-78
2023/12/20 04:28:45;;;;;;;0.90;0.70;;;;;;;19.03;47.46;101468.53;5052105;27;98238;-78
2023/12/20 04:31:12;;;;;;;1.73;0.73;;;;;;;19.03;47.75;101465.81;5048951;27;96661;-78
2023/12/20 04:33:39;;;;;;;1.05;0.75;;;;;;;19.04;47.74;101469.38;5063392;27;97589;-78
2023/12/20 04:36:06;;;;;;;2.47;0.55;;;;;;;19.04;47.46;101456.63;5045295;27;97522;-78
2023/12/20 04:38:32;;;;;;;1.80;0.60;;;;;;;19.04;47.55;101461.22;5043071;27;98750;-78
2023/12/20 04:40:59;;;;;;;1.13;0.57;;;;;;;19.03;47.41;101471.25;5053198;27;96771;-78
2023/12/20 04:43:26;;;;;;;1.05;0.65;;;;;;;19.05;47.64;101461.06;5032831;27;96845;-78
2023/12/20 04:45:52;;;;;;;1.30;0.70;;;;;;;19.06;47.41;101456.47;5069665;27;96703;-78
2023/12/20 04:48:19;;;;;;;1.30;0.70;;;;;;;19.06;47.56;101456.47;5052812;27;98062;-78
2023/12/20 04:50:46;;;;;;;1.38;0.50;;;;;;;19.06;47.54;101456.47;5053332;27;97814;-78
2023/12/20 04:53:13;;;;;;;2.20;0.60;;;;;;;19.05;47.40;101452.91;5047619;27;96851;-78
2023/12/20 04:55:39;;;;;;;0.73;0.50;;;;;;;19.06;47.35;101456.47;5027606;27;97160;-78
2023/12/20 04:58:06;;;;;;;1.77;0.65;;;;;;;19.07;47.70;101457.34;5065481;27;97094;-78
2023/12/20 05:00:33;;;;;;;1.13;0.50;;;;;;;19.06;47.57;101453.75;5038515;27;96763;-78
2023/12/20 05:02:59;;;;;;;1.60;0.57;;;;;;;19.05;47.47;101462.94;5046723;27;96852;-77
2023/12/20 05:05:26;;;;;;;1.02;0.60;;;;;;;19.04;47.77;101464.78;5048552;27;96666;-78
2023/12/20 05:07:53;;;;;;;0.88;0.52;;;;;;;19.05;47.41;101462.94;5046227;27;97413;-78
2023/12/20 05:10:20;;;;;;;0.88;0.60;;;;;;;19.06;47.25;101464.66;5069226;27;98025;-78
2023/12/20 05:12:46;;;;;;;1.02;0.70;;;;;;;19.07;47.34;101457.34;5049760;27;97050;-78
2023/12/20 05:15:13;;;;;;;1.92;0.60;;;;;;;19.04;47.22;101444.88;5047728;27;96757;-78
2023/12/20 05:17:40;;;;;;;1.23;0.70;;;;;;;19.06;47.58;101442.88;5074663;27;96926;-78
2023/12/20 05:20:07;;;;;;;1.50;0.57;;;;;;;19.05;47.31;101436.56;5046081;27;96824;-78
2023/12/20 05:22:34;;;;;;;1.65;0.60;;;;;;;19.06;47.44;101442.88;5051817;27;96817;-78
2023/12/20 05:25:01;;;;;;;1.25;0.60;;;;;;;19.08;47.50;101442.72;5055650;27;96871;-78
2023/12/20 05:27:28;;;;;;;4.38;0.80;;;;;;;19.07;47.42;101438.28;5044388;27;98562;-78
2023/12/20 05:29:57;;;;;;;1.35;0.60;;;;;;;19.02;47.24;101439.59;5055394;27;97466;-77
2023/12/20 05:32:25;;;;;;;1.25;0.65;;;;;;;19.05;47.26;101435.69;5039386;27;97336;-78
2023/12/20 05:34:51;;;;;;;1.63;0.63;;;;;;;19.05;47.40;101435.69;5045861;27;97051;-78
2023/12/20 05:37:18;;;;;;;1.83;0.70;;;;;;;19.05;47.18;101431.13;5062445;27;97551;-78
2023/12/20 05:39:45;;;;;;;1.10;0.60;;;;;;;19.05;47.61;101432.97;5018940;27;98392;-78
2023/12/20 05:42:12;;;;;;;1.20;0.52;;;;;;;19.05;47.64;101432.97;5063684;27;96848;-78
2023/12/20 05:44:39;;;;;;;1.63;0.70;;;;;;;19.05;47.08;101432.97;5047393;27;98153;-78
2023/12/20 05:47:05;;;;;;;0.82;0.60;;;;;;;19.04;47.54;101432.13;5056687;27;99650;-78
2023/12/20 05:49:32;;;;;;;1.85;0.75;;;;;;;19.05;47.13;101435.69;5042958;27;99146;-78
2023/12/20 05:51:59;;;;;;;1.40;0.65;;;;;;;19.07;47.14;101435.56;5054166;27;96698;-78
2023/12/20 05:54:25;;;;;;;1.15;0.55;;;;;;;19.06;47.17;101437.41;5023249;27;97517;-78
2023/12/20 05:56:52;;;;;;;2.05;0.70;;;;;;;19.07;47.27;101441.00;5062893;27;97439;-78
2023/12/20 05:59:19;;;;;;;1.60;0.60;;;;;;;19.07;47.29;101449.16;5030692;27;96873;-78
2023/12/20 06:01:45;;;;;;;0.80;0.47;;;;;;;19.06;47.20;101442.88;5071623;27;97172;-78
2023/12/20 06:04:12;;;;;;;0.70;0.60;;;;;;;19.07;47.14;101451.88;5061174;27;96634;-77
2023/12/20 06:06:42;;;;;;;1.40;0.60;;;;;;;19.05;47.48;101463.78;5067645;27;96699;-77
2023/12/20 06:09:10;;;;;;;0.82;0.50;;;;;;;19.07;47.20;101465.50;5041991;27;98279;-78
2023/12/20 06:11:37;;;;;;;2.63;0.77;;;;;;;19.05;47.04;101465.66;5068681;27;96838;-78
2023/12/20 06:14:04;;;;;;;1.17;0.68;;;;;;;19.03;46.99;101460.34;5037414;27;97415;-78
2023/12/20 06:16:30;;;;;;;2.78;0.80;;;;;;;19.04;47.45;101464.78;5055076;27;97919;-78
2023/12/20 06:18:57;;;;;;;1.20;0.60;;;;;;;19.03;47.41;101460.34;5073617;27;96734;-78
2023/12/20 06:21:24;;;;;;;0.70;0.40;;;;;;;19.02;47.29;101458.63;5073273;27;96448;-78
2023/12/20 06:23:50;;;;;;;0.98;0.68;;;;;;;19.05;47.04;101463.78;5073834;27;97106;-78
2023/12/20 06:26:17;;;;;;;1.42;0.80;;;;;;;19.03;47.25;101459.50;5070670;27;97860;-78
2023/12/20 06:28:44;;;;;;;0.88;0.70;;;;;;;19.04;47.50;101464.78;5067338;27;97067;-78
2023/12/20 06:31:10;;;;;;;1.25;0.50;;;;;;;19.03;47.35;101454.06;5052754;27;97781;-78
2023/12/20 06:33:40;;;;;;;1.17;0.60;;;;;;;19.04;47.16;101445.75;5068400;27;96857;-78
2023/12/20 06:36:07;;;;;;;2.85;0.60;;;;;;;19.04;47.37;101443.00;5045266;27;98328;-78
2023/12/20 06:38:34;;;;;;;1.00;0.68;;;;;;;19.04;47.44;101443.00;5045347;27;97534;-78
2023/12/20 06:41:00;;;;;;;1.65;0.55;;;;;;;19.02;47.04;101442.31;5053782;27;96800;-78
2023/12/20 06:43:27;;;;;;;1.40;0.70;;;;;;;19.04;47.38;101447.59;5045281;27;96902;-78
2023/12/20 06:46:13;;;;;;;1.88;0.60;;;;;;;19.06;46.98;101448.31;5053479;27;99706;-77
2023/12/20 06:48:40;;;;;;;0.88;0.55;;;;;;;19.03;47.45;101449.47;5054215;27;97234;-78
2023/12/20 06:51:12;;;;;;;1.10;0.50;;;;;;;19.03;47.11;101444.03;5042627;27;96649;-78
2023/12/20 06:53:38;;;;;;;1.10;0.50;;;;;;;19.05;47.54;101452.91;5052269;27;97012;-78
2023/12/20 06:56:05;;;;;;;2.00;0.68;;;;;;;19.05;47.45;101446.59;5061316;27;97431;-78
2023/12/20 06:58:32;;;;;;;1.20;0.50;;;;;;;19.04;47.15;101451.19;5047318;27;97656;-78
2023/12/20 07:00:59;;;;;;;1.20;0.47;;;;;;;19.04;46.97;101445.75;5044184;27;97194;-78
2023/12/20 07:03:26;;;;;;;2.15;0.75;;;;;;;19.04;47.15;101453.91;5048872;27;96864;-78
2023/12/20 07:05:52;;;;;;;1.48;0.68;;;;;;;19.04;46.99;101434.00;5032663;27;100200;-77
2023/12/20 07:08:19;;;;;;;1.65;0.57;;;;;;;19.04;47.05;101444.88;5053050;27;96742;-78
2023/12/20 07:10:46;;;;;;;2.05;0.63;;;;;;;19.05;47.06;101438.44;5058878;27;96839;-78
2023/12/20 07:13:13;;;;;;;1.52;0.68;;;;;;;19.03;47.11;101433.13;5042936;27;96972;-78
2023/12/20 07:15:40;;;;;;;1.23;0.60;;;;;;;19.05;46.95;101441.16;5035405;27;100357;-78
2023/12/20 07:18:07;;;;;;;1.67;0.68;;;;;;;19.03;47.36;101440.44;5049310;27;96820;-79
2023/12/20 07:20:34;;;;;;;1.42;0.50;;;;;;;19.03;47.43;101437.72;5033787;27;96909;-79
2023/12/20 07:23:00;;;;;;;1.15;0.45;;;;;;;19.04;47.18;101434.00;5050927;27;96672;-78
2023/12/20 07:25:27;;;;;;;1.27;0.60;;;;;;;19.04;47.31;101439.44;5066034;27;96620;-79
2023/12/20 07:27:54;;;;;;;0.95;0.55;;;;;;;19.04;47.31;101443.00;5043766;27;97610;-79
2023/12/20 07:30:21;;;;;;;1.17;0.60;;;;;;;19.04;47.05;101440.28;5061086;27;96801;-79
2023/12/20 07:32:48;;;;;;;1.25;0.50;;;;;;;19.04;47.25;101445.75;5025177;27;96971;-79
2023/12/20 07:35:16;;;;;;;2.25;0.60;;;;;;;19.05;47.11;101454.75;5041659;27;98941;-79
2023/12/20 07:37:43;;;;;;;0.90;0.68;;;;;;;19.05;47.07;101442.00;5039772;27;97528;-79
2023/12/20 07:40:10;;;;;;;1.30;0.57;;;;;;;19.05;47.21;101442.00;5031632;27;96820;-78
2023/12/20 07:42:37;;;;;;;1.65;0.55;;;;;;;19.04;46.91;101443.00;5047001;27;96794;-79
2023/12/20 07:45:04;;;;;;;1.75;0.70;;;;;;;19.04;47.32;101443.00;5055901;27;97189;-78
2023/12/20 07:47:31;;;;;;;1.63;0.57;;;;;;;19.05;47.30;101444.72;5066387;27;96787;-79
2023/12/20 07:49:57;;;;;;;3.08;1.02;;;;;;;19.04;47.00;101445.75;5048696;27;96723;-78
2023/12/20 07:52:25;;;;;;;3.20;0.85;;;;;;;19.04;47.18;101444.88;5028401;27;96654;-79
2023/12/20 07:54:52;;;;;;;2.30;0.60;;;;;;;19.04;47.11;101442.16;5032617;27;98509;-78
2023/12/20 07:57:19;;;;;;;2.38;1.15;;;;;;;19.03;47.39;101437.72;5069943;27;96784;-78
2023/12/20 07:59:45;;;;;;;1.77;0.80;;;;;;;19.04;47.16;101434.84;5051978;27;97226;-78
2023/12/20 08:02:12;;;;;;;2.55;1.02;;;;;;;19.05;47.05;101433.84;5068669;27;96830;-78
2023/12/20 08:04:39;;;;;;;1.63;0.70;;;;;;;19.05;47.15;101441.16;5051362;27;97821;-78
2023/12/20 08:07:06;;;;;;;4.72;0.90;;;;;;;19.04;46.91;101443.00;5030353;27;97799;-79
2023/12/20 08:09:34;;;;;;;1.40;0.80;;;;;;;19.03;47.30;101444.03;5063392;27;97450;-79
2023/12/20 08:12:00;;;;;;;1.58;0.70;;;;;;;19.03;47.15;101457.63;5051234;27;97641;-78
2023/12/20 08:14:27;;;;;;;2.63;0.80;;;;;;;19.04;47.04;101451.19;5049203;27;98999;-78
2023/12/20 08:16:54;;;;;;;2.33;0.93;;;;;;;19.04;47.15;101458.50;5058364;27;97292;-79
2023/12/20 08:19:20;;;;;;;3.28;1.20;;;;;;;19.05;47.03;101463.78;5043750;27;97408;-79
2023/12/20 08:21:47;;;;;;;1.60;0.73;;;;;;;19.05;47.25;101465.66;5036298;27;96912;-78
2023/12/20 08:24:14;;;;;;;2.58;1.13;;;;;;;19.05;47.07;101469.22;5055000;27;97776;-79
2023/12/20 08:26:40;;;;;;;2.85;0.88;;;;;;;19.04;46.87;101462.06;5038108;27;97282;-79
2023/12/20 08:29:07;;;;;;;1.98;0.82;;;;;;;19.04;46.87;101472.09;5050730;27;97826;-79
2023/12/20 08:31:34;;;;;;;4.75;0.80;;;;;;;19.04;47.13;101467.50;5040499;27;96925;-79
2023/12/20 08:34:01;;;;;;;2.28;1.13;;;;;;;19.05;47.11;101471.09;5066470;27;97441;-78
2023/12/20 08:36:29;;;;;;;2.10;0.80;;;;;;;19.04;46.77;101472.09;5056643;27;97185;-79
2023/12/20 08:38:55;;;;;;;3.17;0.90;;;;;;;19.05;47.24;101473.81;5039519;27;96810;-79
2023/12/20 08:41:22;;;;;;;1.45;0.70;;;;;;;19.06;47.12;101470.09;5056974;27;97014;-79
2023/12/20 08:43:49;;;;;;;3.10;1.00;;;;;;;19.05;46.72;101463.78;5067647;27;97287;-79
2023/12/20 08:46:15;;;;;;;1.77;0.90;;;;;;;19.04;47.18;101462.06;5056935;27;97834;-79
2023/12/20 08:48:42;;;;;;;3.35;0.85;;;;;;;19.04;47.02;101459.34;5058514;27;96695;-78
2023/12/20 08:51:10;;;;;;;3.00;1.10;;;;;;;19.05;47.17;101441.16;5054315;27;97798;-78
2023/12/20 08:53:37;;;;;;;3.13;1.30;;;;;;;19.05;46.78;101441.16;5038027;27;99683;-78
2023/12/20 08:56:04;;;;;;;1.67;0.88;;;;;;;19.04;46.92;101437.56;5057004;27;97371;-79
2023/12/20 08:58:30;;;;;;;4.07;1.38;;;;;;;19.03;46.84;101438.56;5075269;27;97906;-78
2023/12/20 09:00:57;;;;;;;2.10;1.10;;;;;;;19.04;46.82;101434.00;5076034;27;96703;-79
2023/12/20 09:03:24;;;;;;;2.03;1.15;;;;;;;19.05;46.97;101431.13;5076167;27;96750;-78
2023/12/20 09:05:51;;;;;;;2.85;0.98;;;;;;;19.04;47.00;101425.81;5059390;27;96695;-79
2023/12/20 09:08:18;;;;;;;4.20;1.35;;;;;;;19.04;46.76;101421.22;5057458;27;97623;-78
2023/12/20 09:10:44;;;;;;;2.28;1.00;;;;;;;19.03;46.98;101433.13;5041093;27;96906;-78
2023/12/20 09:13:12;;;;;;;2.05;1.08;;;;;;;19.03;46.72;101430.41;5056067;27;98244;-79
2023/12/20 09:15:38;;;;;;;3.65;1.10;;;;;;;19.03;47.10;101435.00;5057422;27;97242;-79
2023/12/20 09:18:05;;;;;;;2.10;1.25;;;;;;;19.03;46.84;101432.28;5044797;27;96816;-79
2023/12/20 09:20:33;;;;;;;2.72;0.95;;;;;;;19.05;46.73;101436.56;5075286;27;96700;-79
2023/12/20 09:23:00;;;;;;;1.98;1.08;;;;;;;19.04;46.63;101443.00;5043439;27;97174;-79
2023/12/20 09:25:28;;;;;;;3.33;1.23;;;;;;;19.04;46.73;101444.88;5043809;27;96712;-78
2023/12/20 09:27:55;;;;;;;2.25;0.98;;;;;;;19.02;46.66;101442.31;5038401;27;96754;-79
2023/12/20 09:30:22;;;;;;;2.60;1.20;;;;;;;19.04;46.80;101450.31;5055798;27;97201;-79
2023/12/20 09:32:54;;;;;;;2.17;1.02;;;;;;;19.03;47.05;101433.13;5061456;27;97533;-79
2023/12/20 09:35:21;;;;;;;2.92;1.13;;;;;;;19.03;47.00;101427.69;5055051;27;98887;-79
2023/12/20 09:37:49;;;;;;;2.47;1.13;;;;;;;19.02;46.97;101431.41;5055905;27;96801;-79
2023/12/20 09:40:18;;;;;;;2.30;1.40;;;;;;;19.04;46.65;101423.09;5034886;27;97109;-79
2023/12/20 09:42:56;;;;;;;2.15;1.05;;;;;;;19.04;46.90;101428.53;5046080;27;96937;-79
2023/12/20 09:45:23;;;;;;;2.85;1.05;;;;;;;19.04;46.52;101426.69;5067912;27;96735;-79
2023/12/20 09:47:52;;;;;;;3.10;1.00;;;;;;;19.03;47.00;101424.09;5047827;27;96692;-79
2023/12/20 09:50:22;;;;;;;2.85;1.05;;;;;;;19.03;46.70;101433.13;5032836;27;96939;-79
2023/12/20 09:52:51;;;;;;;2.85;1.35;;;;;;;19.04;46.72;101434.00;5063327;27;96703;-79
2023/12/20 09:55:19;;;;;;;1.88;0.95;;;;;;;19.05;46.60;101438.44;5025979;27;98472;-79
2023/12/20 09:57:47;;;;;;;1.42;0.80;;;;;;;19.06;46.67;101429.25;5046651;27;96909;-79
2023/12/20 10:00:15;;;;;;;2.95;1.02;;;;;;;19.05;47.02;101446.59;5041858;27;96865;-78
2023/12/20 10:02:49;;;;;;;3.15;1.20;;;;;;;19.04;46.57;101428.53;5040351;27;98767;-79
2023/12/20 10:05:20;;;;;;;3.85;1.00;;;;;;;19.04;46.82;101434.84;5045773;27;97975;-79
2023/12/20 10:07:47;;;;;;;1.83;0.95;;;;;;;19.05;46.92;101433.84;5051738;27;96671;-79
2023/12/20 10:10:15;;;;;;;2.63;0.82;;;;;;;19.05;46.83;101439.28;5065769;27;96744;-79
2023/12/20 10:13:02;;;;;;;2.92;1.45;;;;;;;19.04;46.68;101423.97;5060708;27;98173;-79
2023/12/20 10:15:30;;;;;;;4.18;1.17;;;;;;;19.05;46.67;101419.38;5055645;27;100486;-79
2023/12/20 10:17:58;;;;;;;2.40;0.80;;;;;;;19.05;46.92;101436.56;5044007;27;96771;-78
2023/12/20 10:20:31;;;;;;;2.55;1.20;;;;;;;19.05;46.50;101428.41;5055835;27;96876;-79
2023/12/20 10:22:59;;;;;;;2.75;1.15;;;;;;;19.04;46.98;101425.81;5034512;27;98045;-79
2023/12/20 10:25:26;;;;;;;2.50;1.00;;;;;;;19.05;46.69;101435.69;5052568;27;96728;-79
2023/12/20 10:28:27;;;;;;;2.85;1.05;;;;;;;19.04;46.50;101432.13;5052947;27;97757;-79
2023/12/20 10:30:56;;;;;;;2.05;1.13;;;;;;;19.04;46.76;101432.13;5031720;27;97076;-79
2023/12/20 10:33:34;;;;;;;2.90;1.33;;;;;;;19.05;46.70;101432.97;5052278;27;96892;-79
2023/12/20 10:36:02;;;;;;;2.47;1.15;;;;;;;19.05;46.47;101436.56;5061192;27;97417;-78
2023/12/20 10:38:30;;;;;;;2.30;1.13;;;;;;;19.04;46.45;101428.53;5062711;27;96656;-78
2023/12/20 10:41:00;;;;;;;1.77;0.98;;;;;;;19.04;46.77;101423.97;5036923;27;97115;-79
2023/12/20 10:43:28;;;;;;;3.05;0.88;;;;;;;19.05;46.89;101425.66;5042851;27;100175;-79
2023/12/20 10:45:57;;;;;;;2.28;1.35;;;;;;;19.05;46.86;101417.50;5052468;27;97687;-79
2023/12/20 10:48:28;;;;;;;3.80;1.20;;;;;;;19.05;46.59;101405.75;5044419;27;96722;-79
2023/12/20 10:50:57;;;;;;;4.68;1.10;;;;;;;19.05;46.72;101409.34;5049287;27;97770;-79
2023/12/20 10:53:25;;;;;;;4.03;1.20;;;;;;;19.05;46.52;101411.19;5018357;27;97456;-79
2023/12/20 10:55:55;;;;;;;3.17;1.15;;;;;;;19.06;46.44;101404.75;5036944;27;97358;-79
2023/12/20 10:58:24;;;;;;;2.88;1.15;;;;;;;19.07;46.63;101408.34;5053387;27;97075;-79
2023/12/20 11:00:59;;;;;;;2.70;1.05;;;;;;;19.04;46.40;101410.34;5036458;27;97463;-79
2023/12/20 11:03:29;;;;;;;2.22;1.10;;;;;;;19.06;46.33;101404.75;5031798;27;97879;-78
2023/12/20 11:06:03;;;;;;;2.38;1.13;;;;;;;19.06;46.64;101399.31;5062327;27;97385;-78
2023/12/20 11:08:47;;;;;;;2.45;1.17;;;;;;;19.05;46.75;101393.00;5054473;27;96832;-79
2023/12/20 11:11:25;;;;;;;2.65;1.13;;;;;;;19.05;46.79;101387.56;5055197;27;96857;-78
2023/12/20 11:13:57;;;;;;;3.28;1.20;;;;;;;19.06;46.56;101385.69;5067892;27;96721;-79
2023/12/20 11:16:25;;;;;;;2.63;1.05;;;;;;;19.07;46.57;101381.97;5060355;27;97872;-79
2023/12/20 11:18:55;;;;;;;3.15;1.15;;;;;;;19.05;46.71;101379.41;5061199;27;96786;-79
2023/12/20 11:21:22;;;;;;;2.75;1.27;;;;;;;19.08;46.45;101377.38;5038269;27;96683;-79
2023/12/20 11:23:49;;;;;;;2.30;1.10;;;;;;;19.09;46.51;101381.81;5025042;27;98881;-79
2023/12/20 11:26:17;;;;;;;2.42;1.05;;;;;;;19.08;46.55;101382.81;5070777;27;96971;-79